createdAt,value
2018-12-26T00:01:42.148Z,4.20
2018-12-26T00:04:15.360Z,4.20
2018-12-26T00:06:45.941Z,4.20
2018-12-26T00:09:18.045Z,4.10
2018-12-26T00:11:53.358Z,4.20
2018-12-26T00:14:23.758Z,4.10
2018-12-26T00:16:55.916Z,4.10
2018-12-26T00:19:26.347Z,4.10
2018-12-26T00:22:00.113Z,4.10
2018-12-26T00:24:33.633Z,4.10
2018-12-26T00:27:04.000Z,4.10
2018-12-26T00:29:36.576Z,4.00
2018-12-26T00:32:07.605Z,4.00
2018-12-26T00:34:40.825Z,4.00
2018-12-26T00:37:11.345Z,3.90
2018-12-26T00:39:44.119Z,4.00
2018-12-26T00:42:18.277Z,4.00
2018-12-26T00:44:48.725Z,3.90
2018-12-26T00:47:19.352Z,3.90
2018-12-26T00:49:52.641Z,3.90
2018-12-26T00:52:22.972Z,3.80
2018-12-26T00:54:53.376Z,3.90
2018-12-26T00:57:27.293Z,3.80
2018-12-26T00:59:57.725Z,3.80
2018-12-26T01:02:28.165Z,3.80
2018-12-26T01:04:59.709Z,3.80
2018-12-26T01:07:30.292Z,3.80
2018-12-26T01:10:04.151Z,3.90
2018-12-26T01:12:37.138Z,3.80
2018-12-26T01:15:07.465Z,3.90
2018-12-26T01:17:38.335Z,3.90
2018-12-26T01:20:09.009Z,3.80
2018-12-26T01:22:40.718Z,3.90
2018-12-26T01:25:10.806Z,3.90
2018-12-26T01:27:41.199Z,3.90
2018-12-26T01:30:11.424Z,3.90
2018-12-26T01:32:42.148Z,3.90
2018-12-26T01:35:12.474Z,3.80
2018-12-26T01:37:44.251Z,3.80
2018-12-26T01:40:14.592Z,3.80
2018-12-26T01:42:48.825Z,3.80
2018-12-26T01:45:19.240Z,3.80
2018-12-26T01:47:49.455Z,3.80
2018-12-26T01:50:20.254Z,3.80
2018-12-26T01:52:50.517Z,3.80
2018-12-26T01:55:20.850Z,3.90
2018-12-26T01:57:51.420Z,3.90
2018-12-26T02:00:22.043Z,3.90
2018-12-26T02:02:52.206Z,3.90
2018-12-26T02:05:22.924Z,3.90
2018-12-26T02:07:53.582Z,3.80
2018-12-26T02:13:00.211Z,3.80
2018-12-26T02:15:30.993Z,3.80
2018-12-26T02:18:01.345Z,3.80
2018-12-26T02:20:32.641Z,3.90
2018-12-26T02:23:05.320Z,3.90
2018-12-26T02:25:35.906Z,3.80
2018-12-26T02:28:06.359Z,3.90
2018-12-26T02:30:39.600Z,3.90
2018-12-26T02:33:10.365Z,3.90
2018-12-26T02:35:40.785Z,3.90
2018-12-26T02:38:11.117Z,3.90
2018-12-26T02:40:41.574Z,3.90
2018-12-26T02:43:12.144Z,3.80
2018-12-26T02:45:42.471Z,3.80
2018-12-26T02:48:12.829Z,3.90
2018-12-26T02:50:43.627Z,3.80
2018-12-26T02:53:15.277Z,3.90
2018-12-26T02:55:46.913Z,3.90
2018-12-26T02:58:17.159Z,3.80
2018-12-26T03:00:47.954Z,3.80
2018-12-26T03:03:18.464Z,3.90
2018-12-26T03:05:48.920Z,3.80
2018-12-26T03:08:19.064Z,3.80
2018-12-26T03:10:49.799Z,3.80
2018-12-26T03:13:20.114Z,3.80
2018-12-26T03:15:50.670Z,3.80
2018-12-26T03:18:21.513Z,3.80
2018-12-26T03:20:51.829Z,3.80
2018-12-26T03:23:22.225Z,3.80
2018-12-26T03:25:53.036Z,3.70
2018-12-26T03:28:23.258Z,3.70
2018-12-26T03:30:53.874Z,3.80
2018-12-26T03:33:24.481Z,3.70
2018-12-26T03:35:55.146Z,3.70
2018-12-26T03:38:25.603Z,3.70
2018-12-26T03:40:56.139Z,3.70
2018-12-26T03:43:26.461Z,3.80
2018-12-26T03:45:59.114Z,3.70
2018-12-26T03:48:31.238Z,3.70
2018-12-26T03:51:05.481Z,3.70
2018-12-26T03:53:36.102Z,3.70
2018-12-26T03:56:09.542Z,3.80
2018-12-26T03:58:40.414Z,3.80
2018-12-26T04:01:10.648Z,3.80
2018-12-26T04:03:41.005Z,3.80
2018-12-26T04:06:11.696Z,3.80
2018-12-26T04:08:41.853Z,3.80
2018-12-26T04:11:12.245Z,3.80
2018-12-26T04:13:42.955Z,3.80
2018-12-26T04:16:14.780Z,3.80
2018-12-26T04:18:48.996Z,3.70
2018-12-26T04:21:19.627Z,3.70
2018-12-26T04:23:50.455Z,3.70
2018-12-26T04:26:22.763Z,3.70
2018-12-26T04:28:53.166Z,3.70
2018-12-26T04:31:23.378Z,3.80
2018-12-26T04:33:53.757Z,3.70
2018-12-26T04:36:23.990Z,3.60
2018-12-26T04:38:55.077Z,3.70
2018-12-26T04:41:25.478Z,3.70
2018-12-26T04:43:55.746Z,3.70
2018-12-26T04:46:26.086Z,3.50
2018-12-26T04:48:56.825Z,3.30
2018-12-26T04:51:27.005Z,3.30
2018-12-26T04:53:59.995Z,3.30
2018-12-26T04:56:30.499Z,3.30
2018-12-26T04:59:00.939Z,3.30
2018-12-26T05:01:31.571Z,3.20
2018-12-26T05:04:02.162Z,3.10
2018-12-26T05:06:32.425Z,3.10
2018-12-26T05:09:03.517Z,3.10
2018-12-26T05:11:33.923Z,3.10
2018-12-26T05:14:04.745Z,3.00
2018-12-26T05:16:35.505Z,2.90
2018-12-26T05:19:06.064Z,2.90
2018-12-26T05:21:36.538Z,2.90
2018-12-26T05:24:06.885Z,2.80
2018-12-26T05:26:37.249Z,2.90
2018-12-26T05:29:07.559Z,2.80
2018-12-26T05:31:38.459Z,2.70
2018-12-26T05:34:09.089Z,2.80
2018-12-26T05:36:39.425Z,2.70
2018-12-26T05:39:09.766Z,2.70
2018-12-26T05:41:40.330Z,2.70
2018-12-26T05:44:10.393Z,2.70
2018-12-26T05:46:40.740Z,2.70
2018-12-26T05:49:11.653Z,2.70
2018-12-26T05:51:41.983Z,2.80
2018-12-26T05:54:12.277Z,2.70
2018-12-26T05:56:42.767Z,2.70
2018-12-26T05:59:15.285Z,2.60
2018-12-26T06:01:47.068Z,2.60
2018-12-26T06:04:20.621Z,2.60
2018-12-26T06:06:51.042Z,2.60
2018-12-26T06:09:21.353Z,2.50
2018-12-26T06:11:51.704Z,2.60
2018-12-26T06:14:21.846Z,2.60
2018-12-26T06:16:52.165Z,2.60
2018-12-26T06:19:23.208Z,2.50
2018-12-26T06:21:54.387Z,2.50
2018-12-26T06:24:24.897Z,2.50
2018-12-26T06:26:55.376Z,2.50
2018-12-26T06:29:25.630Z,2.50
2018-12-26T06:31:56.011Z,2.40
2018-12-26T06:34:26.842Z,2.40
2018-12-26T06:36:57.182Z,2.50
2018-12-26T06:39:27.504Z,2.50
2018-12-26T06:41:58.621Z,2.50
2018-12-26T06:44:30.276Z,2.50
2018-12-26T06:47:00.567Z,2.50
2018-12-26T06:49:33.765Z,2.40
2018-12-26T06:52:06.651Z,2.40
2018-12-26T06:54:37.033Z,2.40
2018-12-26T06:57:07.562Z,2.50
2018-12-26T06:59:39.570Z,2.50
2018-12-26T07:02:14.920Z,2.50
2018-12-26T07:04:45.171Z,2.50
2018-12-26T07:07:15.927Z,2.40
2018-12-26T07:09:46.650Z,2.50
2018-12-26T07:12:16.942Z,2.60
2018-12-26T07:14:47.681Z,2.60
2018-12-26T07:17:18.493Z,2.50
2018-12-26T07:19:48.718Z,2.50
2018-12-26T07:22:22.628Z,2.50
2018-12-26T07:24:52.994Z,2.50
2018-12-26T07:27:23.648Z,2.50
2018-12-26T07:29:54.601Z,2.50
2018-12-26T07:32:24.857Z,2.50
2018-12-26T07:34:55.197Z,2.50
2018-12-26T07:37:25.669Z,2.50
2018-12-26T07:39:55.870Z,2.50
2018-12-26T07:42:26.583Z,2.50
2018-12-26T07:44:57.000Z,2.50
2018-12-26T07:47:27.228Z,2.60
2018-12-26T07:49:59.079Z,2.50
2018-12-26T07:52:29.690Z,2.60
2018-12-26T07:55:03.036Z,2.60
2018-12-26T07:57:33.945Z,2.60
2018-12-26T08:00:06.318Z,2.60
2018-12-26T08:02:36.528Z,2.70
2018-12-26T08:05:07.485Z,2.70
2018-12-26T08:07:37.959Z,2.60
2018-12-26T08:10:09.462Z,2.60
2018-12-26T08:12:43.679Z,2.60
2018-12-26T08:15:14.064Z,2.60
2018-12-26T08:17:44.684Z,2.60
2018-12-26T08:20:20.444Z,2.60
2018-12-26T08:22:50.773Z,2.70
2018-12-26T08:25:20.926Z,2.70
2018-12-26T08:27:53.981Z,2.70
2018-12-26T08:30:26.175Z,2.70
2018-12-26T08:32:56.437Z,2.70
2018-12-26T08:35:27.255Z,2.70
2018-12-26T08:38:01.131Z,2.60
2018-12-26T08:40:31.281Z,2.70
2018-12-26T08:43:06.784Z,2.60
2018-12-26T08:45:37.041Z,2.70
2018-12-26T08:48:07.161Z,2.70
2018-12-26T08:50:38.450Z,2.70
2018-12-26T08:53:11.728Z,2.80
2018-12-26T08:55:43.429Z,2.70
2018-12-26T08:58:16.525Z,2.80
2018-12-26T09:00:46.905Z,2.80
2018-12-26T09:03:20.204Z,2.80
2018-12-26T09:05:51.218Z,2.80
2018-12-26T09:08:21.514Z,2.80
2018-12-26T09:10:51.777Z,2.80
2018-12-26T09:13:22.426Z,2.80
2018-12-26T09:15:53.068Z,2.80
2018-12-26T09:18:24.494Z,2.80
2018-12-26T09:20:57.300Z,2.80
2018-12-26T09:23:29.377Z,2.90
2018-12-26T09:26:02.975Z,2.90
2018-12-26T09:28:33.261Z,3.00
2018-12-26T09:31:06.904Z,3.00
2018-12-26T09:33:40.591Z,3.00
2018-12-26T09:36:12.944Z,3.00
2018-12-26T09:38:44.149Z,3.00
2018-12-26T09:41:14.505Z,3.00
2018-12-26T09:43:44.799Z,3.00
2018-12-26T09:46:18.419Z,3.00
2018-12-26T09:48:50.501Z,3.10
2018-12-26T09:51:20.465Z,3.10
2018-12-26T09:53:53.306Z,3.00
2018-12-26T09:56:23.253Z,3.00
2018-12-26T09:58:56.512Z,3.10
2018-12-26T10:01:27.094Z,3.00
2018-12-26T10:03:59.724Z,3.00
2018-12-26T10:06:30.327Z,3.00
2018-12-26T10:09:02.530Z,3.00
2018-12-26T10:11:34.521Z,3.00
2018-12-26T10:14:04.869Z,3.10
2018-12-26T10:16:35.553Z,3.00
2018-12-26T10:19:07.788Z,3.00
2018-12-26T10:21:38.146Z,3.00
2018-12-26T10:24:09.220Z,3.00
2018-12-26T10:26:49.125Z,3.00
2018-12-26T10:29:26.769Z,3.00
2018-12-26T10:31:57.313Z,3.10
2018-12-26T10:34:27.789Z,3.00
2018-12-26T10:37:02.292Z,3.00
2018-12-26T10:39:33.689Z,3.00
2018-12-26T10:42:03.938Z,3.00
2018-12-26T10:44:41.053Z,3.00
2018-12-26T10:47:13.205Z,3.00
2018-12-26T10:49:43.876Z,3.10
2018-12-26T10:52:14.457Z,3.10
2018-12-26T10:54:44.917Z,3.10
2018-12-26T10:57:17.824Z,3.20
2018-12-26T10:59:48.071Z,3.10
2018-12-26T11:02:18.365Z,3.10
2018-12-26T11:04:52.105Z,3.20
2018-12-26T11:07:22.281Z,3.10
2018-12-26T11:09:52.628Z,3.10
2018-12-26T11:12:29.568Z,3.10
2018-12-26T11:15:06.111Z,3.10
2018-12-26T11:17:39.585Z,3.10
2018-12-26T11:20:12.738Z,3.10
2018-12-26T11:22:47.416Z,3.10
2018-12-26T11:25:17.712Z,3.20
2018-12-26T11:27:48.155Z,3.20
2018-12-26T11:30:18.533Z,3.30
2018-12-26T11:32:50.026Z,3.20
2018-12-26T11:35:24.242Z,3.20
2018-12-26T11:37:59.631Z,3.20
2018-12-26T11:40:30.009Z,3.20
2018-12-26T11:43:00.395Z,3.10
2018-12-26T11:45:36.388Z,3.20
2018-12-26T11:48:06.785Z,3.20
2018-12-26T11:50:43.224Z,3.30
2018-12-26T11:53:14.629Z,3.30
2018-12-26T11:55:47.407Z,3.40
2018-12-26T11:58:19.056Z,3.40
2018-12-26T12:00:54.441Z,3.30
2018-12-26T12:03:24.503Z,3.30
2018-12-26T12:06:00.465Z,3.30
2018-12-26T12:08:32.526Z,3.30
2018-12-26T12:11:05.495Z,3.30
2018-12-26T12:13:43.512Z,3.40
2018-12-26T12:16:14.164Z,3.40
2018-12-26T12:18:47.267Z,3.40
2018-12-26T12:21:21.295Z,3.40
2018-12-26T12:23:53.812Z,3.40
2018-12-26T12:26:24.389Z,3.40
2018-12-26T12:28:55.031Z,3.40
2018-12-26T12:31:25.373Z,3.40
2018-12-26T12:33:56.109Z,3.40
2018-12-26T12:36:28.088Z,3.40
2018-12-26T12:38:59.277Z,3.40
2018-12-26T12:41:34.751Z,3.40
2018-12-26T12:44:08.634Z,3.50
2018-12-26T12:46:39.213Z,3.50
2018-12-26T12:49:09.625Z,3.50
2018-12-26T12:51:40.112Z,3.60
2018-12-26T12:54:16.038Z,3.60
2018-12-26T12:56:46.332Z,3.60
2018-12-26T12:59:19.941Z,3.60
2018-12-26T13:01:54.662Z,3.60
2018-12-26T13:04:25.106Z,3.60
2018-12-26T13:06:55.899Z,3.50
2018-12-26T13:09:26.678Z,3.60
2018-12-26T13:11:57.549Z,3.60
2018-12-26T13:14:32.420Z,3.60
2018-12-26T13:17:04.639Z,3.60
2018-12-26T13:19:37.062Z,3.60
2018-12-26T13:22:08.507Z,3.60
2018-12-26T13:24:38.836Z,3.70
2018-12-26T13:27:12.831Z,3.70
2018-12-26T13:29:53.774Z,3.70
2018-12-26T13:32:18.548Z,3.70
2018-12-26T13:34:48.989Z,3.80
2018-12-26T13:37:19.623Z,3.80
2018-12-26T13:39:50.049Z,3.80
2018-12-26T13:42:20.373Z,3.80
2018-12-26T13:44:50.603Z,3.80
2018-12-26T13:47:23.286Z,3.90
2018-12-26T13:49:53.656Z,3.90
2018-12-26T13:52:24.472Z,3.80
2018-12-26T13:54:54.778Z,3.90
2018-12-26T13:57:28.073Z,3.80
2018-12-26T14:00:02.353Z,3.80
2018-12-26T14:02:33.897Z,3.80
2018-12-26T14:05:04.373Z,3.70
2018-12-26T14:07:34.838Z,3.80
2018-12-26T14:10:05.149Z,3.80
2018-12-26T14:12:35.521Z,3.80
2018-12-26T14:15:06.809Z,3.80
2018-12-26T14:17:41.196Z,3.90
2018-12-26T14:20:11.656Z,3.90
2018-12-26T14:22:45.359Z,4.00
2018-12-26T14:25:15.764Z,4.00
2018-12-26T14:27:46.058Z,3.90
2018-12-26T14:30:16.397Z,3.90
2018-12-26T14:32:49.143Z,3.90
2018-12-26T14:35:20.848Z,3.90
2018-12-26T14:37:51.695Z,3.90
2018-12-26T14:40:23.145Z,3.90
2018-12-26T14:42:55.688Z,3.90
2018-12-26T14:45:29.801Z,3.90
2018-12-26T14:48:01.929Z,3.90
2018-12-26T14:50:37.259Z,3.90
2018-12-26T14:53:09.057Z,3.80
2018-12-26T14:55:42.353Z,3.90
2018-12-26T14:58:16.549Z,3.80
2018-12-26T15:00:50.181Z,3.90
2018-12-26T15:03:22.426Z,3.90
2018-12-26T15:05:53.022Z,3.90
2018-12-26T15:08:23.297Z,3.90
2018-12-26T15:10:53.809Z,3.90
2018-12-26T15:13:27.657Z,3.90
2018-12-26T15:15:57.921Z,3.90
2018-12-26T15:18:40.732Z,3.90
2018-12-26T15:21:11.057Z,3.90
2018-12-26T15:23:41.897Z,3.90
2018-12-26T15:26:12.549Z,3.90
2018-12-26T15:28:44.601Z,3.90
2018-12-26T15:31:18.356Z,3.90
2018-12-26T15:33:50.887Z,3.90
2018-12-26T15:36:27.281Z,3.90
2018-12-26T15:39:04.109Z,3.90
2018-12-26T15:41:35.431Z,3.80
2018-12-26T15:44:08.389Z,3.80
2018-12-26T15:46:39.043Z,3.70
2018-12-26T15:49:12.129Z,3.80
2018-12-26T15:51:43.017Z,3.70
2018-12-26T15:54:14.662Z,3.80
2018-12-26T15:56:46.637Z,3.80
2018-12-26T15:59:16.965Z,3.70
2018-12-26T16:01:56.519Z,3.70
2018-12-26T16:04:26.873Z,3.70
2018-12-26T16:07:05.630Z,3.70
2018-12-26T16:09:35.840Z,3.70
2018-12-26T16:12:08.842Z,3.70
2018-12-26T16:14:39.253Z,3.80
2018-12-26T16:17:09.751Z,3.70
2018-12-26T16:19:40.352Z,3.70
2018-12-26T16:22:10.757Z,3.80
2018-12-26T16:24:45.778Z,3.70
2018-12-26T16:27:18.974Z,3.80
2018-12-26T16:29:54.262Z,3.70
2018-12-26T16:32:26.565Z,3.80
2018-12-26T16:34:58.770Z,3.90
2018-12-26T16:37:29.273Z,3.90
2018-12-26T16:40:02.720Z,3.80
2018-12-26T16:42:35.064Z,3.80
2018-12-26T16:45:05.819Z,3.90
2018-12-26T16:47:36.405Z,3.80
2018-12-26T16:50:09.005Z,3.90
2018-12-26T16:52:39.673Z,3.90
2018-12-26T16:55:11.037Z,4.00
2018-12-26T16:57:44.364Z,3.90
2018-12-26T17:00:17.056Z,3.90
2018-12-26T17:02:50.229Z,3.90
2018-12-26T17:05:20.869Z,3.90
2018-12-26T17:07:51.398Z,4.00
2018-12-26T17:10:23.157Z,4.00
2018-12-26T17:12:53.555Z,3.90
2018-12-26T17:15:33.689Z,4.00
2018-12-26T17:18:05.861Z,4.00
2018-12-26T17:20:39.522Z,4.00
2018-12-26T17:23:11.321Z,4.00
2018-12-26T17:25:43.241Z,4.00
2018-12-26T17:28:16.774Z,4.00
2018-12-26T17:30:48.117Z,4.00
2018-12-26T17:33:18.377Z,4.00
2018-12-26T17:35:50.505Z,4.00
2018-12-26T17:38:20.684Z,4.00
2018-12-26T17:40:50.986Z,4.00
2018-12-26T17:43:21.845Z,4.10
2018-12-26T17:45:52.747Z,4.10
2018-12-26T17:48:24.155Z,4.10
2018-12-26T17:50:54.673Z,4.10
2018-12-26T17:54:04.636Z,4.10
2018-12-26T17:56:51.306Z,4.20
2018-12-26T18:00:03.090Z,4.20
2018-12-26T18:02:45.043Z,4.20
2018-12-26T18:05:17.796Z,4.20
2018-12-26T18:07:50.193Z,4.20
2018-12-26T18:10:20.484Z,4.20
2018-12-26T18:12:52.062Z,4.20
2018-12-26T18:15:22.944Z,4.20
2018-12-26T18:17:57.020Z,4.20
2018-12-26T18:20:29.919Z,4.20
2018-12-26T18:23:00.726Z,4.20
2018-12-26T18:25:34.126Z,4.20
2018-12-26T18:28:04.619Z,4.20
2018-12-26T18:30:37.622Z,4.20
2018-12-26T18:33:08.112Z,4.20
2018-12-26T18:35:40.827Z,4.20
2018-12-26T18:38:15.615Z,4.20
2018-12-26T18:40:45.901Z,4.20
2018-12-26T18:43:16.969Z,4.20
2018-12-26T18:45:47.513Z,4.20
2018-12-26T18:48:17.931Z,4.20
2018-12-26T18:50:48.194Z,4.10
2018-12-26T18:53:20.189Z,4.20
2018-12-26T18:55:50.449Z,4.20
2018-12-26T18:58:23.998Z,4.20
2018-12-26T19:01:00.249Z,4.10
2018-12-26T19:03:30.781Z,4.10
2018-12-26T19:06:07.451Z,4.10
2018-12-26T19:08:38.337Z,4.10
2018-12-26T19:11:10.367Z,4.10
2018-12-26T19:13:44.712Z,4.10
2018-12-26T19:16:14.844Z,4.10
2018-12-26T19:18:45.716Z,4.10
2018-12-26T19:21:22.169Z,4.10
2018-12-26T19:23:52.346Z,4.10
2018-12-26T19:26:22.652Z,4.10
2018-12-26T19:28:53.177Z,4.00
2018-12-26T19:31:23.664Z,4.00
2018-12-26T19:33:56.314Z,4.10
2018-12-26T19:36:29.201Z,4.10
2018-12-26T19:39:02.237Z,4.20
2018-12-26T19:41:35.574Z,4.10
2018-12-26T19:44:08.874Z,4.10
2018-12-26T19:46:41.189Z,4.10
2018-12-26T19:49:14.634Z,4.10
2018-12-26T19:51:45.541Z,4.10
2018-12-26T19:54:19.264Z,4.10
2018-12-26T19:56:49.511Z,4.10
2018-12-26T19:59:20.435Z,4.00
2018-12-26T20:01:53.918Z,4.00
2018-12-26T20:04:26.196Z,4.10
2018-12-26T20:06:59.969Z,4.00
2018-12-26T20:09:33.528Z,4.00
2018-12-26T20:12:10.569Z,4.00
2018-12-26T20:14:40.901Z,4.00
2018-12-26T20:17:16.623Z,3.80
2018-12-26T20:19:47.326Z,3.90
2018-12-26T20:22:17.826Z,3.90
2018-12-26T20:24:48.061Z,3.90
2018-12-26T20:27:22.240Z,3.80
2018-12-26T20:29:52.738Z,3.90
2018-12-26T20:32:25.450Z,3.90
2018-12-26T20:34:56.094Z,3.80
2018-12-26T20:37:28.158Z,3.90
2018-12-26T20:40:01.917Z,3.90
2018-12-26T20:42:32.213Z,3.90
2018-12-26T20:45:06.194Z,3.90
2018-12-26T20:47:45.464Z,3.90
2018-12-26T20:50:15.950Z,3.90
2018-12-26T20:52:46.684Z,3.90
2018-12-26T20:55:19.085Z,3.90
2018-12-26T20:57:49.448Z,3.90
2018-12-26T21:00:20.353Z,3.90
2018-12-26T21:03:00.229Z,3.90
2018-12-26T21:05:30.974Z,3.80
2018-12-26T21:08:01.534Z,3.90
2018-12-26T21:10:33.328Z,3.80
2018-12-26T21:13:04.084Z,3.80
2018-12-26T21:15:34.305Z,3.80
2018-12-26T21:18:10.290Z,3.80
2018-12-26T21:20:43.706Z,3.70
2018-12-26T21:23:15.548Z,3.70
2018-12-26T21:25:46.795Z,3.80
2018-12-26T21:28:18.607Z,3.80
2018-12-26T21:30:48.807Z,3.80
2018-12-26T21:33:19.287Z,3.70
2018-12-26T21:35:50.325Z,3.70
2018-12-26T21:38:20.590Z,3.70
2018-12-26T21:40:50.867Z,3.70
2018-12-26T21:43:25.787Z,3.70
2018-12-26T21:45:55.999Z,3.70
2018-12-26T21:48:29.912Z,3.60
2018-12-26T21:51:02.052Z,3.60
2018-12-26T21:53:37.106Z,3.60
2018-12-26T21:56:09.845Z,3.60
2018-12-26T21:58:43.841Z,3.60
2018-12-26T22:01:14.457Z,3.50
2018-12-26T22:03:44.745Z,3.50
2018-12-26T22:06:15.390Z,3.50
2018-12-26T22:08:48.485Z,3.40
2018-12-26T22:11:23.843Z,3.40
2018-12-26T22:13:54.189Z,3.40
2018-12-26T22:16:24.493Z,3.30
2018-12-26T22:18:54.935Z,3.30
2018-12-26T22:21:25.335Z,3.30
2018-12-26T22:23:55.496Z,3.30
2018-12-26T22:26:25.677Z,3.20
2018-12-26T22:28:56.795Z,3.20
2018-12-26T22:31:28.143Z,3.20
2018-12-26T22:33:58.471Z,3.20
2018-12-26T22:36:28.713Z,3.10
2018-12-26T22:38:58.957Z,3.10
2018-12-26T22:41:32.515Z,3.10
2018-12-26T22:44:04.763Z,3.10
2018-12-26T22:46:41.900Z,3.10
2018-12-26T22:49:12.559Z,3.10
2018-12-26T22:51:44.973Z,3.00
2018-12-26T22:54:15.541Z,3.10
2018-12-26T22:56:47.654Z,3.10
2018-12-26T22:59:17.984Z,3.00
2018-12-26T23:01:55.489Z,3.10
2018-12-26T23:04:25.809Z,3.10
2018-12-26T23:06:56.145Z,3.00
2018-12-26T23:09:32.343Z,3.00
2018-12-26T23:12:02.813Z,3.00
2018-12-26T23:14:35.898Z,3.00
2018-12-26T23:17:09.555Z,2.90
2018-12-26T23:19:43.056Z,2.90
2018-12-26T23:22:15.394Z,2.90
2018-12-26T23:24:46.294Z,2.90
2018-12-26T23:27:16.641Z,3.00
2018-12-26T23:29:47.258Z,2.90
2018-12-26T23:32:17.584Z,3.00
2018-12-26T23:34:49.208Z,3.00
2018-12-26T23:37:19.630Z,2.90
2018-12-26T23:39:52.132Z,3.00
2018-12-26T23:42:22.333Z,3.20
2018-12-26T23:44:59.133Z,3.20
2018-12-26T23:47:29.484Z,3.20
2018-12-26T23:50:00.372Z,3.30
2018-12-26T23:52:30.861Z,3.30
2018-12-26T23:55:05.397Z,3.10
2018-12-26T23:57:37.203Z,3.00
